sensor_id;sensor_type;location;lat;lon;timestamp;temperature;humidity
51661;DHT22;37741;49.748;8.490;2023-09-08T00:00:56;23.60;60.90
51661;DHT22;37741;49.748;8.490;2023-09-08T00:03:22;23.60;60.70
51661;DHT22;37741;49.748;8.490;2023-09-08T00:05:48;23.50;60.90
51661;DHT22;37741;49.748;8.490;2023-09-08T00:08:13;23.50;61.10
51661;DHT22;37741;49.748;8.490;2023-09-08T00:10:39;23.50;61.20
51661;DHT22;37741;49.748;8.490;2023-09-08T00:13:05;23.50;61.20
51661;DHT22;37741;49.748;8.490;2023-09-08T00:15:30;23.40;61.20
51661;DHT22;37741;49.748;8.490;2023-09-08T00:17:58;23.40;61.20
51661;DHT22;37741;49.748;8.490;2023-09-08T00:20:24;23.30;61.30
51661;DHT22;37741;49.748;8.490;2023-09-08T00:22:50;23.30;61.20
51661;DHT22;37741;49.748;8.490;2023-09-08T00:25:15;23.30;61.30
51661;DHT22;37741;49.748;8.490;2023-09-08T00:27:41;23.30;61.30
51661;DHT22;37741;49.748;8.490;2023-09-08T00:30:07;23.30;61.50
51661;DHT22;37741;49.748;8.490;2023-09-08T00:32:33;23.20;61.50
51661;DHT22;37741;49.748;8.490;2023-09-08T00:34:58;23.20;61.70
51661;DHT22;37741;49.748;8.490;2023-09-08T00:37:24;23.10;61.70
51661;DHT22;37741;49.748;8.490;2023-09-08T00:39:49;23.10;61.40
51661;DHT22;37741;49.748;8.490;2023-09-08T00:42:15;23.00;61.70
51661;DHT22;37741;49.748;8.490;2023-09-08T00:44:41;23.00;61.90
51661;DHT22;37741;49.748;8.490;2023-09-08T00:47:06;23.00;62.00
51661;DHT22;37741;49.748;8.490;2023-09-08T00:49:32;22.90;62.00
51661;DHT22;37741;49.748;8.490;2023-09-08T00:51:58;22.90;61.90
51661;DHT22;37741;49.748;8.490;2023-09-08T00:54:24;22.90;62.20
51661;DHT22;37741;49.748;8.490;2023-09-08T00:56:55;22.80;62.30
51661;DHT22;37741;49.748;8.490;2023-09-08T00:59:22;22.80;62.30
51661;DHT22;37741;49.748;8.490;2023-09-08T01:01:48;22.70;62.40
51661;DHT22;37741;49.748;8.490;2023-09-08T01:04:14;22.70;62.50
51661;DHT22;37741;49.748;8.490;2023-09-08T01:06:39;22.70;62.60
51661;DHT22;37741;49.748;8.490;2023-09-08T01:09:05;22.70;62.80
51661;DHT22;37741;49.748;8.490;2023-09-08T01:11:31;22.60;62.70
51661;DHT22;37741;49.748;8.490;2023-09-08T01:13:57;22.60;62.80
51661;DHT22;37741;49.748;8.490;2023-09-08T01:16:23;22.50;62.90
51661;DHT22;37741;49.748;8.490;2023-09-08T01:18:49;22.50;63.00
51661;DHT22;37741;49.748;8.490;2023-09-08T01:21:44;22.50;63.10
51661;DHT22;37741;49.748;8.490;2023-09-08T01:27:14;22.40;63.20
51661;DHT22;37741;49.748;8.490;2023-09-08T01:29:42;22.40;63.30
51661;DHT22;37741;49.748;8.490;2023-09-08T01:32:08;22.30;63.20
51661;DHT22;37741;49.748;8.490;2023-09-08T01:34:36;22.30;63.40
51661;DHT22;37741;49.748;8.490;2023-09-08T01:37:06;22.30;63.40
51661;DHT22;37741;49.748;8.490;2023-09-08T01:39:31;22.30;63.60
51661;DHT22;37741;49.748;8.490;2023-09-08T01:41:57;22.20;63.60
51661;DHT22;37741;49.748;8.490;2023-09-08T01:44:22;22.20;63.70
51661;DHT22;37741;49.748;8.490;2023-09-08T01:46:48;22.20;63.70
51661;DHT22;37741;49.748;8.490;2023-09-08T01:49:16;22.20;63.80
51661;DHT22;37741;49.748;8.490;2023-09-08T01:51:42;22.10;63.80
51661;DHT22;37741;49.748;8.490;2023-09-08T01:54:07;22.10;63.90
51661;DHT22;37741;49.748;8.490;2023-09-08T01:56:33;22.10;63.90
51661;DHT22;37741;49.748;8.490;2023-09-08T01:58:58;22.10;64.00
51661;DHT22;37741;49.748;8.490;2023-09-08T02:01:25;22.00;64.10
51661;DHT22;37741;49.748;8.490;2023-09-08T02:03:50;22.00;64.20
51661;DHT22;37741;49.748;8.490;2023-09-08T02:06:16;22.00;64.30
51661;DHT22;37741;49.748;8.490;2023-09-08T02:08:42;22.00;64.30
51661;DHT22;37741;49.748;8.490;2023-09-08T02:11:07;21.90;64.40
51661;DHT22;37741;49.748;8.490;2023-09-08T02:13:33;21.90;64.40
51661;DHT22;37741;49.748;8.490;2023-09-08T02:15:58;21.90;64.70
51661;DHT22;37741;49.748;8.490;2023-09-08T02:18:25;21.80;64.80
51661;DHT22;37741;49.748;8.490;2023-09-08T02:20:50;21.80;64.90
51661;DHT22;37741;49.748;8.490;2023-09-08T02:23:16;21.80;65.00
51661;DHT22;37741;49.748;8.490;2023-09-08T02:25:41;21.80;65.00
51661;DHT22;37741;49.748;8.490;2023-09-08T02:28:07;21.80;65.10
51661;DHT22;37741;49.748;8.490;2023-09-08T02:30:32;21.80;65.10
51661;DHT22;37741;49.748;8.490;2023-09-08T02:32:58;21.80;65.10
51661;DHT22;37741;49.748;8.490;2023-09-08T02:35:24;21.70;65.00
51661;DHT22;37741;49.748;8.490;2023-09-08T02:37:49;21.80;65.10
51661;DHT22;37741;49.748;8.490;2023-09-08T02:40:15;21.80;65.10
51661;DHT22;37741;49.748;8.490;2023-09-08T02:42:41;21.70;65.00
51661;DHT22;37741;49.748;8.490;2023-09-08T02:45:07;21.70;65.00
51661;DHT22;37741;49.748;8.490;2023-09-08T02:47:32;21.70;65.00
51661;DHT22;37741;49.748;8.490;2023-09-08T02:49:58;21.70;65.10
51661;DHT22;37741;49.748;8.490;2023-09-08T02:52:23;21.70;65.20
51661;DHT22;37741;49.748;8.490;2023-09-08T02:54:49;21.70;65.20
51661;DHT22;37741;49.748;8.490;2023-09-08T02:57:15;21.70;65.20
51661;DHT22;37741;49.748;8.490;2023-09-08T02:59:40;21.60;65.30
51661;DHT22;37741;49.748;8.490;2023-09-08T03:02:06;21.60;65.30
51661;DHT22;37741;49.748;8.490;2023-09-08T03:04:31;21.60;65.40
51661;DHT22;37741;49.748;8.490;2023-09-08T03:06:57;21.60;65.30
51661;DHT22;37741;49.748;8.490;2023-09-08T03:09:22;21.60;65.40
51661;DHT22;37741;49.748;8.490;2023-09-08T03:11:48;21.60;65.20
51661;DHT22;37741;49.748;8.490;2023-09-08T03:14:14;21.50;65.20
51661;DHT22;37741;49.748;8.490;2023-09-08T03:16:39;21.50;65.20
51661;DHT22;37741;49.748;8.490;2023-09-08T03:19:05;21.50;65.20
51661;DHT22;37741;49.748;8.490;2023-09-08T03:21:31;21.50;65.20
51661;DHT22;37741;49.748;8.490;2023-09-08T03:23:57;21.40;65.10
51661;DHT22;37741;49.748;8.490;2023-09-08T03:26:22;21.40;65.10
51661;DHT22;37741;49.748;8.490;2023-09-08T03:28:48;21.30;65.00
51661;DHT22;37741;49.748;8.490;2023-09-08T03:31:13;21.30;65.10
51661;DHT22;37741;49.748;8.490;2023-09-08T03:33:39;21.30;65.10
51661;DHT22;37741;49.748;8.490;2023-09-08T03:36:04;21.20;65.20
51661;DHT22;37741;49.748;8.490;2023-09-08T03:38:30;21.20;65.20
51661;DHT22;37741;49.748;8.490;2023-09-08T03:40:56;21.10;65.20
51661;DHT22;37741;49.748;8.490;2023-09-08T03:43:21;21.10;65.30
51661;DHT22;37741;49.748;8.490;2023-09-08T03:45:47;21.10;65.40
51661;DHT22;37741;49.748;8.490;2023-09-08T03:48:12;21.00;65.50
51661;DHT22;37741;49.748;8.490;2023-09-08T03:50:38;21.00;65.50
51661;DHT22;37741;49.748;8.490;2023-09-08T03:53:04;21.00;65.60
51661;DHT22;37741;49.748;8.490;2023-09-08T03:55:29;20.90;65.60
51661;DHT22;37741;49.748;8.490;2023-09-08T03:57:55;20.90;65.60
51661;DHT22;37741;49.748;8.490;2023-09-08T04:00:20;20.80;65.60
51661;DHT22;37741;49.748;8.490;2023-09-08T04:02:49;20.80;65.70
51661;DHT22;37741;49.748;8.490;2023-09-08T04:05:25;20.80;65.70
51661;DHT22;37741;49.748;8.490;2023-09-08T04:07:51;20.70;65.80
51661;DHT22;37741;49.748;8.490;2023-09-08T04:10:16;20.70;65.80
51661;DHT22;37741;49.748;8.490;2023-09-08T04:12:42;20.70;65.80
51661;DHT22;37741;49.748;8.490;2023-09-08T04:15:09;20.60;65.80
51661;DHT22;37741;49.748;8.490;2023-09-08T04:17:35;20.60;65.80
51661;DHT22;37741;49.748;8.490;2023-09-08T04:20:04;20.60;65.90
51661;DHT22;37741;49.748;8.490;2023-09-08T04:22:30;20.60;65.90
51661;DHT22;37741;49.748;8.490;2023-09-08T04:24:56;20.50;65.80
51661;DHT22;37741;49.748;8.490;2023-09-08T04:27:23;20.50;65.80
51661;DHT22;37741;49.748;8.490;2023-09-08T04:29:48;20.50;65.90
51661;DHT22;37741;49.748;8.490;2023-09-08T04:32:14;20.40;65.90
51661;DHT22;37741;49.748;8.490;2023-09-08T04:34:41;20.40;65.90
51661;DHT22;37741;49.748;8.490;2023-09-08T04:37:07;20.40;65.90
51661;DHT22;37741;49.748;8.490;2023-09-08T04:39:33;20.40;66.00
51661;DHT22;37741;49.748;8.490;2023-09-08T04:42:00;20.40;66.00
51661;DHT22;37741;49.748;8.490;2023-09-08T04:44:26;20.30;66.00
51661;DHT22;37741;49.748;8.490;2023-09-08T04:46:52;20.30;66.00
51661;DHT22;37741;49.748;8.490;2023-09-08T04:49:18;20.30;66.10
51661;DHT22;37741;49.748;8.490;2023-09-08T04:51:44;20.20;66.00
51661;DHT22;37741;49.748;8.490;2023-09-08T04:54:10;20.20;66.10
51661;DHT22;37741;49.748;8.490;2023-09-08T04:56:36;20.20;66.10
51661;DHT22;37741;49.748;8.490;2023-09-08T04:59:01;20.20;66.20
51661;DHT22;37741;49.748;8.490;2023-09-08T05:01:27;20.10;66.20
51661;DHT22;37741;49.748;8.490;2023-09-08T05:03:55;20.10;66.30
51661;DHT22;37741;49.748;8.490;2023-09-08T05:06:21;20.10;66.30
51661;DHT22;37741;49.748;8.490;2023-09-08T05:08:46;20.00;66.30
51661;DHT22;37741;49.748;8.490;2023-09-08T05:11:12;20.00;66.40
51661;DHT22;37741;49.748;8.490;2023-09-08T05:13:37;20.00;66.40
51661;DHT22;37741;49.748;8.490;2023-09-08T05:16:03;20.00;66.40
51661;DHT22;37741;49.748;8.490;2023-09-08T05:18:40;20.00;66.50
51661;DHT22;37741;49.748;8.490;2023-09-08T05:21:06;20.00;66.60
51661;DHT22;37741;49.748;8.490;2023-09-08T05:23:32;19.90;66.50
51661;DHT22;37741;49.748;8.490;2023-09-08T05:25:59;19.90;66.60
51661;DHT22;37741;49.748;8.490;2023-09-08T05:28:25;19.90;66.60
51661;DHT22;37741;49.748;8.490;2023-09-08T05:30:51;19.90;66.70
51661;DHT22;37741;49.748;8.490;2023-09-08T05:33:17;19.80;66.60
51661;DHT22;37741;49.748;8.490;2023-09-08T05:35:44;19.80;66.80
51661;DHT22;37741;49.748;8.490;2023-09-08T05:38:10;19.80;67.50
51661;DHT22;37741;49.748;8.490;2023-09-08T05:40:36;19.80;66.70
51661;DHT22;37741;49.748;8.490;2023-09-08T05:43:01;19.90;66.70
51661;DHT22;37741;49.748;8.490;2023-09-08T05:45:27;19.90;66.70
51661;DHT22;37741;49.748;8.490;2023-09-08T05:47:53;19.90;66.60
51661;DHT22;37741;49.748;8.490;2023-09-08T05:50:19;19.90;66.60
51661;DHT22;37741;49.748;8.490;2023-09-08T05:52:44;19.90;66.60
51661;DHT22;37741;49.748;8.490;2023-09-08T05:55:10;19.90;66.50
51661;DHT22;37741;49.748;8.490;2023-09-08T05:57:36;19.90;66.50
51661;DHT22;37741;49.748;8.490;2023-09-08T06:00:06;19.90;66.50
51661;DHT22;37741;49.748;8.490;2023-09-08T06:02:32;19.90;66.50
51661;DHT22;37741;49.748;8.490;2023-09-08T06:04:57;19.90;66.40
51661;DHT22;37741;49.748;8.490;2023-09-08T06:07:23;19.90;66.50
51661;DHT22;37741;49.748;8.490;2023-09-08T06:09:49;19.90;66.50
51661;DHT22;37741;49.748;8.490;2023-09-08T06:12:14;19.90;66.40
51661;DHT22;37741;49.748;8.490;2023-09-08T06:14:40;19.90;66.50
51661;DHT22;37741;49.748;8.490;2023-09-08T06:17:05;19.90;66.60
51661;DHT22;37741;49.748;8.490;2023-09-08T06:19:31;19.90;66.80
51661;DHT22;37741;49.748;8.490;2023-09-08T06:21:56;19.90;66.90
51661;DHT22;37741;49.748;8.490;2023-09-08T06:24:22;19.90;66.90
51661;DHT22;37741;49.748;8.490;2023-09-08T06:26:48;19.90;67.10
51661;DHT22;37741;49.748;8.490;2023-09-08T06:29:15;19.90;67.20
51661;DHT22;37741;49.748;8.490;2023-09-08T06:31:40;19.90;67.40
51661;DHT22;37741;49.748;8.490;2023-09-08T06:34:06;20.00;67.50
51661;DHT22;37741;49.748;8.490;2023-09-08T06:36:32;19.90;67.60
51661;DHT22;37741;49.748;8.490;2023-09-08T06:38:57;20.00;67.70
51661;DHT22;37741;49.748;8.490;2023-09-08T06:41:23;19.90;67.60
51661;DHT22;37741;49.748;8.490;2023-09-08T06:43:49;19.90;67.60
51661;DHT22;37741;49.748;8.490;2023-09-08T06:46:15;19.90;67.70
51661;DHT22;37741;49.748;8.490;2023-09-08T06:48:40;19.90;67.80
51661;DHT22;37741;49.748;8.490;2023-09-08T06:51:06;19.90;68.20
51661;DHT22;37741;49.748;8.490;2023-09-08T06:53:32;19.80;68.60
51661;DHT22;37741;49.748;8.490;2023-09-08T06:55:58;19.80;68.20
51661;DHT22;37741;49.748;8.490;2023-09-08T06:58:23;19.80;68.40
51661;DHT22;37741;49.748;8.490;2023-09-08T07:00:49;19.70;68.40
51661;DHT22;37741;49.748;8.490;2023-09-08T07:03:18;19.70;69.20
51661;DHT22;37741;49.748;8.490;2023-09-08T07:05:44;19.70;69.30
51661;DHT22;37741;49.748;8.490;2023-09-08T07:08:10;19.70;69.40
51661;DHT22;37741;49.748;8.490;2023-09-08T07:10:36;19.70;69.20
51661;DHT22;37741;49.748;8.490;2023-09-08T07:13:01;19.60;69.50
51661;DHT22;37741;49.748;8.490;2023-09-08T07:15:27;19.60;69.30
51661;DHT22;37741;49.748;8.490;2023-09-08T07:17:53;19.60;69.50
51661;DHT22;37741;49.748;8.490;2023-09-08T07:20:18;19.60;69.70
51661;DHT22;37741;49.748;8.490;2023-09-08T07:22:44;19.50;70.00
51661;DHT22;37741;49.748;8.490;2023-09-08T07:25:09;19.50;69.80
51661;DHT22;37741;49.748;8.490;2023-09-08T07:27:35;19.50;69.60
51661;DHT22;37741;49.748;8.490;2023-09-08T07:30:01;19.50;69.90
51661;DHT22;37741;49.748;8.490;2023-09-08T07:32:26;19.50;71.00
51661;DHT22;37741;49.748;8.490;2023-09-08T07:34:52;19.50;70.80
51661;DHT22;37741;49.748;8.490;2023-09-08T07:37:23;19.50;70.90
51661;DHT22;37741;49.748;8.490;2023-09-08T07:39:50;19.50;71.20
51661;DHT22;37741;49.748;8.490;2023-09-08T07:42:16;19.50;70.60
51661;DHT22;37741;49.748;8.490;2023-09-08T07:44:42;19.50;70.60
51661;DHT22;37741;49.748;8.490;2023-09-08T07:47:07;19.40;70.90
51661;DHT22;37741;49.748;8.490;2023-09-08T07:49:34;19.50;70.90
51661;DHT22;37741;49.748;8.490;2023-09-08T07:51:59;19.50;71.30
51661;DHT22;37741;49.748;8.490;2023-09-08T07:54:25;19.40;70.70
51661;DHT22;37741;49.748;8.490;2023-09-08T07:56:51;19.50;71.30
51661;DHT22;37741;49.748;8.490;2023-09-08T07:59:17;19.50;71.40
51661;DHT22;37741;49.748;8.490;2023-09-08T08:01:43;19.50;71.30
51661;DHT22;37741;49.748;8.490;2023-09-08T08:04:09;19.50;71.80
51661;DHT22;37741;49.748;8.490;2023-09-08T08:06:35;19.50;71.60
51661;DHT22;37741;49.748;8.490;2023-09-08T08:09:00;19.50;71.20
51661;DHT22;37741;49.748;8.490;2023-09-08T08:11:26;19.50;71.90
51661;DHT22;37741;49.748;8.490;2023-09-08T08:13:52;19.50;72.20
51661;DHT22;37741;49.748;8.490;2023-09-08T08:16:17;19.50;71.70
51661;DHT22;37741;49.748;8.490;2023-09-08T08:18:45;19.50;71.60
51661;DHT22;37741;49.748;8.490;2023-09-08T08:21:11;19.50;71.60
51661;DHT22;37741;49.748;8.490;2023-09-08T08:23:37;19.60;72.00
51661;DHT22;37741;49.748;8.490;2023-09-08T08:26:03;19.50;72.00
51661;DHT22;37741;49.748;8.490;2023-09-08T08:28:29;19.50;72.00
51661;DHT22;37741;49.748;8.490;2023-09-08T08:30:55;19.60;72.10
51661;DHT22;37741;49.748;8.490;2023-09-08T08:33:22;19.50;72.30
51661;DHT22;37741;49.748;8.490;2023-09-08T08:35:54;19.50;72.00
51661;DHT22;37741;49.748;8.490;2023-09-08T08:38:19;19.60;72.30
51661;DHT22;37741;49.748;8.490;2023-09-08T08:40:45;19.60;73.20
51661;DHT22;37741;49.748;8.490;2023-09-08T08:43:12;19.60;75.40
51661;DHT22;37741;49.748;8.490;2023-09-08T08:45:38;19.70;73.20
51661;DHT22;37741;49.748;8.490;2023-09-08T08:48:05;19.60;73.20
51661;DHT22;37741;49.748;8.490;2023-09-08T08:50:35;19.60;72.40
51661;DHT22;37741;49.748;8.490;2023-09-08T08:53:00;19.60;75.60
51661;DHT22;37741;49.748;8.490;2023-09-08T08:55:29;19.70;74.50
51661;DHT22;37741;49.748;8.490;2023-09-08T08:58:01;19.70;74.20
51661;DHT22;37741;49.748;8.490;2023-09-08T09:00:28;19.80;73.70
51661;DHT22;37741;49.748;8.490;2023-09-08T09:02:54;19.80;73.40
51661;DHT22;37741;49.748;8.490;2023-09-08T09:05:22;19.80;73.30
51661;DHT22;37741;49.748;8.490;2023-09-08T09:07:48;19.90;73.00
51661;DHT22;37741;49.748;8.490;2023-09-08T09:10:15;19.90;72.80
51661;DHT22;37741;49.748;8.490;2023-09-08T09:12:50;19.90;73.10
51661;DHT22;37741;49.748;8.490;2023-09-08T09:15:16;20.00;72.20
51661;DHT22;37741;49.748;8.490;2023-09-08T09:17:43;20.00;72.10
51661;DHT22;37741;49.748;8.490;2023-09-08T09:20:18;20.00;71.90
51661;DHT22;37741;49.748;8.490;2023-09-08T09:22:46;20.10;71.90
51661;DHT22;37741;49.748;8.490;2023-09-08T09:25:26;20.10;71.90
51661;DHT22;37741;49.748;8.490;2023-09-08T09:27:56;20.10;71.60
51661;DHT22;37741;49.748;8.490;2023-09-08T09:30:25;20.20;71.40
51661;DHT22;37741;49.748;8.490;2023-09-08T09:33:03;20.20;71.60
51661;DHT22;37741;49.748;8.490;2023-09-08T09:35:48;20.20;71.60
51661;DHT22;37741;49.748;8.490;2023-09-08T09:38:15;20.30;71.30
51661;DHT22;37741;49.748;8.490;2023-09-08T09:40:44;20.30;71.70
51661;DHT22;37741;49.748;8.490;2023-09-08T09:43:11;20.30;71.30
51661;DHT22;37741;49.748;8.490;2023-09-08T09:45:41;20.40;71.50
51661;DHT22;37741;49.748;8.490;2023-09-08T09:48:09;20.30;71.10
51661;DHT22;37741;49.748;8.490;2023-09-08T09:50:38;20.40;71.30
51661;DHT22;37741;49.748;8.490;2023-09-08T09:53:13;20.30;71.20
51661;DHT22;37741;49.748;8.490;2023-09-08T09:55:40;20.30;71.30
51661;DHT22;37741;49.748;8.490;2023-09-08T09:58:06;20.40;71.30
51661;DHT22;37741;49.748;8.490;2023-09-08T10:00:33;20.40;71.30
51661;DHT22;37741;49.748;8.490;2023-09-08T10:03:00;20.40;71.50
51661;DHT22;37741;49.748;8.490;2023-09-08T10:05:27;20.40;71.40
51661;DHT22;37741;49.748;8.490;2023-09-08T10:07:53;20.40;71.70
51661;DHT22;37741;49.748;8.490;2023-09-08T10:10:20;20.50;71.20
51661;DHT22;37741;49.748;8.490;2023-09-08T10:12:51;20.50;70.90
51661;DHT22;37741;49.748;8.490;2023-09-08T10:15:21;20.50;70.70
51661;DHT22;37741;49.748;8.490;2023-09-08T10:17:55;20.50;71.10
51661;DHT22;37741;49.748;8.490;2023-09-08T10:20:23;20.50;71.80
51661;DHT22;37741;49.748;8.490;2023-09-08T10:22:54;20.50;71.30
51661;DHT22;37741;49.748;8.490;2023-09-08T10:25:21;20.60;71.70
51661;DHT22;37741;49.748;8.490;2023-09-08T10:27:50;20.50;71.60
51661;DHT22;37741;49.748;8.490;2023-09-08T10:30:16;20.60;72.60
51661;DHT22;37741;49.748;8.490;2023-09-08T10:32:46;20.60;72.30
51661;DHT22;37741;49.748;8.490;2023-09-08T10:35:15;20.60;73.00
51661;DHT22;37741;49.748;8.490;2023-09-08T10:37:42;20.60;71.90
51661;DHT22;37741;49.748;8.490;2023-09-08T10:42:47;20.70;71.40
51661;DHT22;37741;49.748;8.490;2023-09-08T10:45:19;20.70;71.50
51661;DHT22;37741;49.748;8.490;2023-09-08T10:50:18;20.80;71.00
51661;DHT22;37741;49.748;8.490;2023-09-08T10:52:44;20.80;71.40
51661;DHT22;37741;49.748;8.490;2023-09-08T10:55:12;20.90;71.20
51661;DHT22;37741;49.748;8.490;2023-09-08T10:57:45;20.90;71.90
51661;DHT22;37741;49.748;8.490;2023-09-08T11:00:11;20.90;70.80
51661;DHT22;37741;49.748;8.490;2023-09-08T11:02:49;20.90;70.30
51661;DHT22;37741;49.748;8.490;2023-09-08T11:05:16;20.90;70.90
51661;DHT22;37741;49.748;8.490;2023-09-08T11:07:43;20.90;71.00
51661;DHT22;37741;49.748;8.490;2023-09-08T11:10:11;20.90;72.20
51661;DHT22;37741;49.748;8.490;2023-09-08T11:12:37;21.00;70.90
51661;DHT22;37741;49.748;8.490;2023-09-08T11:15:05;21.00;71.70
51661;DHT22;37741;49.748;8.490;2023-09-08T11:17:33;21.00;72.10
51661;DHT22;37741;49.748;8.490;2023-09-08T11:20:00;21.00;71.20
51661;DHT22;37741;49.748;8.490;2023-09-08T11:22:26;21.10;71.40
51661;DHT22;37741;49.748;8.490;2023-09-08T11:24:53;21.10;70.70
51661;DHT22;37741;49.748;8.490;2023-09-08T11:27:20;21.20;70.20
51661;DHT22;37741;49.748;8.490;2023-09-08T11:29:46;21.20;71.10
51661;DHT22;37741;49.748;8.490;2023-09-08T11:32:12;21.20;71.20
51661;DHT22;37741;49.748;8.490;2023-09-08T11:34:38;21.20;70.60
51661;DHT22;37741;49.748;8.490;2023-09-08T11:37:14;21.30;71.60
51661;DHT22;37741;49.748;8.490;2023-09-08T11:39:41;21.30;71.00
51661;DHT22;37741;49.748;8.490;2023-09-08T11:42:12;21.30;70.70
51661;DHT22;37741;49.748;8.490;2023-09-08T11:44:38;21.40;71.80
51661;DHT22;37741;49.748;8.490;2023-09-08T11:47:04;21.40;71.20
51661;DHT22;37741;49.748;8.490;2023-09-08T11:49:40;21.40;70.10
51661;DHT22;37741;49.748;8.490;2023-09-08T11:52:06;21.50;70.30
51661;DHT22;37741;49.748;8.490;2023-09-08T11:54:34;21.50;70.60
51661;DHT22;37741;49.748;8.490;2023-09-08T11:57:02;21.50;70.30
51661;DHT22;37741;49.748;8.490;2023-09-08T11:59:34;21.60;69.40
51661;DHT22;37741;49.748;8.490;2023-09-08T12:02:00;21.60;69.30
51661;DHT22;37741;49.748;8.490;2023-09-08T12:04:27;21.70;70.50
51661;DHT22;37741;49.748;8.490;2023-09-08T12:06:53;21.70;69.00
51661;DHT22;37741;49.748;8.490;2023-09-08T12:09:21;21.70;69.50
51661;DHT22;37741;49.748;8.490;2023-09-08T12:11:47;21.70;70.20
51661;DHT22;37741;49.748;8.490;2023-09-08T12:14:14;21.80;70.00
51661;DHT22;37741;49.748;8.490;2023-09-08T12:16:41;21.80;70.90
51661;DHT22;37741;49.748;8.490;2023-09-08T12:19:07;21.90;69.00
51661;DHT22;37741;49.748;8.490;2023-09-08T12:21:55;21.90;69.60
51661;DHT22;37741;49.748;8.490;2023-09-08T12:27:19;22.00;70.90
51661;DHT22;37741;49.748;8.490;2023-09-08T12:32:20;22.20;70.40
51661;DHT22;37741;49.748;8.490;2023-09-08T12:34:46;22.30;70.30
51661;DHT22;37741;49.748;8.490;2023-09-08T12:37:11;22.50;71.50
51661;DHT22;37741;49.748;8.490;2023-09-08T12:39:39;22.60;69.90
51661;DHT22;37741;49.748;8.490;2023-09-08T12:42:05;22.70;68.80
51661;DHT22;37741;49.748;8.490;2023-09-08T12:44:30;22.80;67.80
51661;DHT22;37741;49.748;8.490;2023-09-08T12:46:56;22.80;67.70
51661;DHT22;37741;49.748;8.490;2023-09-08T12:49:22;22.90;69.20
51661;DHT22;37741;49.748;8.490;2023-09-08T12:51:47;23.00;67.40
51661;DHT22;37741;49.748;8.490;2023-09-08T12:54:13;23.00;68.60
51661;DHT22;37741;49.748;8.490;2023-09-08T12:56:38;23.10;67.70
51661;DHT22;37741;49.748;8.490;2023-09-08T12:59:04;23.20;66.90
51661;DHT22;37741;49.748;8.490;2023-09-08T13:01:30;23.30;67.30
51661;DHT22;37741;49.748;8.490;2023-09-08T13:03:55;23.40;66.60
51661;DHT22;37741;49.748;8.490;2023-09-08T13:06:21;23.60;66.40
51661;DHT22;37741;49.748;8.490;2023-09-08T13:08:48;23.60;65.50
51661;DHT22;37741;49.748;8.490;2023-09-08T13:11:13;23.70;65.70
51661;DHT22;37741;49.748;8.490;2023-09-08T13:13:39;23.70;65.70
51661;DHT22;37741;49.748;8.490;2023-09-08T13:16:04;23.80;65.40
51661;DHT22;37741;49.748;8.490;2023-09-08T13:18:30;23.90;64.90
51661;DHT22;37741;49.748;8.490;2023-09-08T13:21:00;24.00;64.40
51661;DHT22;37741;49.748;8.490;2023-09-08T13:23:26;24.10;64.40
51661;DHT22;37741;49.748;8.490;2023-09-08T13:25:52;24.20;64.20
51661;DHT22;37741;49.748;8.490;2023-09-08T13:28:18;24.30;63.30
51661;DHT22;37741;49.748;8.490;2023-09-08T13:30:43;24.30;64.20
51661;DHT22;37741;49.748;8.490;2023-09-08T13:33:09;24.40;63.20
51661;DHT22;37741;49.748;8.490;2023-09-08T13:35:35;24.40;63.20
51661;DHT22;37741;49.748;8.490;2023-09-08T13:38:01;24.40;63.30
51661;DHT22;37741;49.748;8.490;2023-09-08T13:40:28;24.50;63.40
51661;DHT22;37741;49.748;8.490;2023-09-08T13:42:54;24.50;63.50
51661;DHT22;37741;49.748;8.490;2023-09-08T13:45:19;24.60;63.30
51661;DHT22;37741;49.748;8.490;2023-09-08T13:47:45;24.60;63.20
51661;DHT22;37741;49.748;8.490;2023-09-08T13:50:11;24.60;62.90
51661;DHT22;37741;49.748;8.490;2023-09-08T13:52:37;24.70;63.40
51661;DHT22;37741;49.748;8.490;2023-09-08T13:55:06;24.80;63.10
51661;DHT22;37741;49.748;8.490;2023-09-08T13:57:32;24.80;62.50
51661;DHT22;37741;49.748;8.490;2023-09-08T13:59:57;24.90;62.40
51661;DHT22;37741;49.748;8.490;2023-09-08T14:02:23;25.00;62.60
51661;DHT22;37741;49.748;8.490;2023-09-08T14:04:49;25.10;63.00
51661;DHT22;37741;49.748;8.490;2023-09-08T14:07:14;25.10;62.50
51661;DHT22;37741;49.748;8.490;2023-09-08T14:09:40;25.20;62.20
51661;DHT22;37741;49.748;8.490;2023-09-08T14:12:06;25.20;62.40
51661;DHT22;37741;49.748;8.490;2023-09-08T14:14:31;25.30;61.90
51661;DHT22;37741;49.748;8.490;2023-09-08T14:16:57;25.40;61.40
51661;DHT22;37741;49.748;8.490;2023-09-08T14:19:23;25.40;61.30
51661;DHT22;37741;49.748;8.490;2023-09-08T14:21:48;25.50;61.30
51661;DHT22;37741;49.748;8.490;2023-09-08T14:24:14;25.60;61.20
51661;DHT22;37741;49.748;8.490;2023-09-08T14:26:40;25.70;61.10
51661;DHT22;37741;49.748;8.490;2023-09-08T14:29:05;25.80;60.90
51661;DHT22;37741;49.748;8.490;2023-09-08T14:31:31;25.80;60.60
51661;DHT22;37741;49.748;8.490;2023-09-08T14:33:57;25.90;60.10
51661;DHT22;37741;49.748;8.490;2023-09-08T14:36:25;26.00;59.90
51661;DHT22;37741;49.748;8.490;2023-09-08T14:38:51;26.10;60.20
51661;DHT22;37741;49.748;8.490;2023-09-08T14:41:17;26.10;59.60
51661;DHT22;37741;49.748;8.490;2023-09-08T14:43:43;26.20;60.30
51661;DHT22;37741;49.748;8.490;2023-09-08T14:46:09;26.30;59.40
51661;DHT22;37741;49.748;8.490;2023-09-08T14:48:35;26.40;59.10
51661;DHT22;37741;49.748;8.490;2023-09-08T14:51:01;26.50;59.40
51661;DHT22;37741;49.748;8.490;2023-09-08T14:53:29;26.60;58.90
51661;DHT22;37741;49.748;8.490;2023-09-08T14:55:57;26.60;58.80
51661;DHT22;37741;49.748;8.490;2023-09-08T14:58:23;26.70;58.90
51661;DHT22;37741;49.748;8.490;2023-09-08T15:00:50;26.80;58.40
51661;DHT22;37741;49.748;8.490;2023-09-08T15:03:16;26.90;58.80
51661;DHT22;37741;49.748;8.490;2023-09-08T15:05:42;27.00;57.50
51661;DHT22;37741;49.748;8.490;2023-09-08T15:08:08;27.10;57.60
51661;DHT22;37741;49.748;8.490;2023-09-08T15:10:33;27.20;57.70
51661;DHT22;37741;49.748;8.490;2023-09-08T15:12:59;27.20;57.70
51661;DHT22;37741;49.748;8.490;2023-09-08T15:15:25;27.30;56.90
51661;DHT22;37741;49.748;8.490;2023-09-08T15:17:53;27.50;56.70
51661;DHT22;37741;49.748;8.490;2023-09-08T15:20:20;27.60;56.50
51661;DHT22;37741;49.748;8.490;2023-09-08T15:22:45;27.70;56.50
51661;DHT22;37741;49.748;8.490;2023-09-08T15:25:11;27.80;56.10
51661;DHT22;37741;49.748;8.490;2023-09-08T15:27:37;28.00;56.20
51661;DHT22;37741;49.748;8.490;2023-09-08T15:30:03;28.10;55.70
51661;DHT22;37741;49.748;8.490;2023-09-08T15:32:29;28.20;55.70
51661;DHT22;37741;49.748;8.490;2023-09-08T15:34:54;28.30;55.20
51661;DHT22;37741;49.748;8.490;2023-09-08T15:37:20;28.30;55.20
51661;DHT22;37741;49.748;8.490;2023-09-08T15:39:45;28.40;54.70